Time;durP1;ratioP1;P1;durP2;ratioP2;P2;SDS_P1;SDS_P2;PMS_P1;PMS_P2;Temp;Humidity;BMP_temperature;BMP_pressure;BME280_temperature;BME280_humidity;BME280_pressure;Samples;Min_cycle;Max_cycle;Signal;HPM_P1;HPM_P2
2022/04/22 00:09:35;;;;;;;1.83;0.90;;;13.20;64.40;;;;;;20692729;28;20508;-73
2022/04/22 00:19:36;;;;;;;1.50;0.80;;;13.10;64.30;;;;;;20724257;28;20025;-73
2022/04/22 00:29:36;;;;;;;1.70;1.00;;;13.10;64.30;;;;;;20723908;28;20502;-73
2022/04/22 00:39:37;;;;;;;1.77;1.10;;;13.10;64.30;;;;;;20724831;28;20038;-74
2022/04/22 00:49:37;;;;;;;2.05;0.95;;;13.10;64.30;;;;;;20722548;28;20152;-74
2022/04/22 00:59:38;;;;;;;1.45;0.90;;;13.10;64.30;;;;;;20716455;28;20060;-73
2022/04/22 01:09:47;;;;;;;0.75;0.60;;;13.10;64.20;;;;;;20705857;28;20120;-73
2022/04/22 01:19:48;;;;;;;1.33;0.77;;;13.10;64.20;;;;;;20723139;28;20026;-74
2022/04/22 01:29:48;;;;;;;0.98;0.68;;;13.10;64.20;;;;;;20736488;28;20076;-73
2022/04/22 01:39:49;;;;;;;1.92;1.00;;;13.10;64.20;;;;;;20703485;28;20389;-73
2022/04/22 01:49:49;;;;;;;1.40;0.90;;;13.10;64.10;;;;;;20719172;28;20507;-72
2022/04/22 01:59:50;;;;;;;2.05;1.00;;;13.10;64.10;;;;;;20717900;28;20038;-73
2022/04/22 02:09:51;;;;;;;1.30;0.80;;;13.10;64.10;;;;;;20700189;28;20049;-73
2022/04/22 02:19:51;;;;;;;2.17;0.88;;;13.10;64.20;;;;;;20716317;28;20034;-74
2022/04/22 02:29:52;;;;;;;2.65;1.00;;;13.10;64.10;;;;;;21086311;22;20035;-74
2022/04/22 02:39:53;;;;;;;1.27;0.95;;;13.10;64.10;;;;;;20649741;28;20440;-73
2022/04/22 02:49:53;;;;;;;0.95;0.70;;;13.00;64.10;;;;;;20650075;28;20497;-72
2022/04/22 02:59:54;;;;;;;1.90;1.00;;;13.00;64.10;;;;;;20631760;28;20054;-73
2022/04/22 03:09:54;;;;;;;1.40;0.80;;;13.00;64.70;;;;;;20647063;28;20374;-72
2022/04/22 03:19:55;;;;;;;1.58;1.00;;;13.00;64.00;;;;;;20632055;28;20136;-72
2022/04/22 03:29:56;;;;;;;3.28;1.27;;;13.00;64.00;;;;;;20630829;28;20050;-73
2022/04/22 03:39:57;;;;;;;2.05;1.23;;;13.00;64.00;;;;;;20629437;28;20026;-72
2022/04/22 03:49:58;;;;;;;1.50;0.90;;;13.00;64.00;;;;;;20628537;28;20643;-72
2022/04/22 03:59:58;;;;;;;1.70;1.08;;;13.00;64.00;;;;;;20627810;28;20172;-73
2022/04/22 04:30:40;;;;;;;1.75;1.17;;;13.00;64.00;;;;;;20651548;28;20046;-77
2022/04/22 04:40:40;;;;;;;1.92;0.95;;;12.90;63.90;;;;;;20618273;28;20034;-77
2022/04/22 04:50:43;;;;;;;1.63;1.08;;;12.90;63.90;;;;;;20651289;28;20045;-75
2022/04/22 05:00:46;;;;;;;1.73;1.10;;;12.90;63.90;;;;;;20637224;28;20112;-69
2022/04/22 05:10:46;;;;;;;3.85;1.00;;;12.90;63.90;;;;;;20613990;28;20038;-71
2022/04/22 05:20:48;;;;;;;1.63;1.13;;;12.90;63.80;;;;;;20642829;28;20114;-71
2022/04/22 05:41:07;;;;;;;1.23;0.90;;;12.90;63.80;;;;;;20650341;28;20500;-77
2022/04/22 05:51:08;;;;;;;1.33;0.93;;;12.90;63.80;;;;;;20632872;28;20035;-77
2022/04/22 06:01:08;;;;;;;2.35;1.27;;;12.90;63.80;;;;;;20557590;28;20027;-77
2022/04/22 06:11:09;;;;;;;1.52;0.98;;;12.90;63.80;;;;;;20556662;28;20126;-76
2022/04/22 06:21:10;;;;;;;1.23;0.88;;;12.90;63.90;;;;;;20589356;28;20034;-76
2022/04/22 06:31:11;;;;;;;2.22;0.80;;;12.90;63.90;;;;;;20618678;28;20046;-77
2022/04/22 06:51:32;;;;;;;1.80;0.82;;;12.90;63.90;;;;;;20649035;28;20038;-76
2022/04/22 07:01:33;;;;;;;1.17;0.90;;;12.90;63.90;;;;;;20625231;28;20041;-81
2022/04/22 07:11:35;;;;;;;2.90;1.10;;;12.90;63.90;;;;;;20630494;28;20508;-78
2022/04/22 07:21:36;;;;;;;4.15;0.93;;;12.90;63.90;;;;;;20554564;28;20481;-79
2022/04/22 07:31:36;;;;;;;2.20;1.40;;;12.90;63.90;;;;;;20643720;28;20054;-77
2022/04/22 07:41:38;;;;;;;2.67;1.77;;;12.80;63.80;;;;;;20630252;28;20116;-78
2022/04/22 07:51:39;;;;;;;2.00;1.25;;;12.90;63.90;;;;;;20622442;28;20043;-78
2022/04/22 08:01:40;;;;;;;1.35;0.88;;;12.80;63.80;;;;;;20644011;28;20541;-79
2022/04/22 08:11:42;;;;;;;2.20;1.25;;;12.80;63.80;;;;;;20625450;28;20034;-77
2022/04/22 08:21:42;;;;;;;5.82;1.90;;;12.90;63.80;;;;;;20610330;28;20484;-76
2022/04/22 08:31:44;;;;;;;3.60;1.83;;;12.90;63.80;;;;;;20592557;28;20050;-77
2022/04/22 08:41:44;;;;;;;3.78;1.85;;;12.80;63.80;;;;;;20596639;28;20038;-80
2022/04/22 08:51:45;;;;;;;4.15;1.90;;;12.90;63.80;;;;;;20612009;28;20069;-78
2022/04/22 09:01:46;;;;;;;4.97;1.92;;;12.90;63.80;;;;;;20642171;28;20046;-78
2022/04/22 09:11:47;;;;;;;3.90;2.40;;;12.90;63.80;;;;;;20561310;28;20089;-75
2022/04/22 09:21:57;;;;;;;3.65;1.58;;;12.90;63.70;;;;;;20564388;28;20049;-82
2022/04/22 09:31:57;;;;;;;3.80;1.60;;;13.00;63.70;;;;;;20637991;28;20092;-77
2022/04/22 09:42:39;;;;;;;5.32;1.63;;;13.00;63.70;;;;;;20638983;28;20038;-76
2022/04/22 09:52:43;;;;;;;1.73;1.50;;;12.90;63.60;;;;;;20655586;28;20132;-77
2022/04/22 10:02:43;;;;;;;2.35;1.38;;;13.00;63.60;;;;;;20599791;28;20049;-77
2022/04/22 10:12:44;;;;;;;2.75;1.52;;;13.00;63.60;;;;;;20621703;28;20034;-77
2022/04/22 10:22:47;;;;;;;3.80;1.50;;;13.00;63.60;;;;;;20627903;28;20155;-75
2022/04/22 10:32:48;;;;;;;1.63;1.20;;;13.00;63.60;;;;;;20603784;28;20539;-78
2022/04/22 10:42:50;;;;;;;2.25;1.23;;;13.00;63.60;;;;;;20619438;28;20038;-85
2022/04/22 10:53:23;;;;;;;1.38;1.10;;;13.00;63.50;;;;;;20544574;28;20031;-82
2022/04/22 11:03:25;;;;;;;6.97;2.53;;;13.10;63.60;;;;;;20582339;28;20715;-79
2022/04/22 11:13:31;;;;;;;2.00;1.13;;;13.00;63.60;;;;;;20601672;28;20042;-76
2022/04/22 11:23:36;;;;;;;3.20;1.53;;;13.10;63.70;;;;;;20612827;28;20101;-77
2022/04/22 11:33:55;;;;;;;2.45;1.23;;;13.20;63.80;;;;;;20590566;28;20034;-80
2022/04/22 11:43:56;;;;;;;3.63;1.17;;;13.20;63.80;;;;;;20635379;28;20089;-81
2022/04/22 11:53:56;;;;;;;1.85;1.10;;;13.20;63.80;;;;;;20627119;28;20125;-81
2022/04/22 12:14:32;;;;;;;1.75;1.42;;;13.30;63.90;;;;;;20637176;28;20030;-79
2022/04/22 12:24:33;;;;;;;4.57;1.20;;;13.30;63.90;;;;;;20632637;28;20085;-78
2022/04/22 12:34:35;;;;;;;1.60;0.90;;;13.30;63.90;;;;;;20600018;28;20042;-76
2022/04/22 12:44:35;;;;;;;2.15;0.82;;;13.30;63.90;;;;;;20590586;28;20121;-76
2022/04/22 12:54:37;;;;;;;5.03;1.40;;;13.30;63.90;;;;;;20646856;28;20073;-76
2022/04/22 13:04:58;;;;;;;3.13;1.10;;;13.30;63.90;;;;;;20629096;28;20034;-84
2022/04/22 13:14:59;;;;;;;3.40;1.33;;;13.40;63.90;;;;;;20630603;28;20543;-75
2022/04/22 13:24:59;;;;;;;2.35;1.05;;;13.40;63.90;;;;;;20593690;28;20074;-86
2022/04/22 13:35:00;;;;;;;1.15;0.80;;;13.40;63.90;;;;;;20627761;28;20267;-80
2022/04/22 13:55:20;;;;;;;3.97;1.08;;;13.40;63.90;;;;;;20562526;28;20034;-79
2022/04/22 14:05:23;;;;;;;6.85;1.83;;;13.40;63.90;;;;;;20559410;28;20073;-83
2022/04/22 14:15:25;;;;;;;5.15;1.40;;;13.50;63.70;;;;;;20561237;28;20034;-82
2022/04/22 14:25:25;;;;;;;5.60;1.88;;;13.50;63.70;;;;;;20560189;28;20038;-81
2022/04/22 14:35:26;;;;;;;5.25;2.13;;;13.50;63.70;;;;;;20538268;28;20058;-78
2022/04/22 14:45:27;;;;;;;4.07;1.80;;;13.50;63.70;;;;;;20522342;28;20137;-80
2022/04/22 14:55:27;;;;;;;4.55;2.90;;;13.50;63.80;;;;;;20542277;28;20086;-81
2022/04/22 15:05:29;;;;;;;7.95;2.95;;;13.50;64.20;;;;;;20571078;28;20050;-81
2022/04/22 15:15:31;;;;;;;4.97;2.88;;;13.50;64.60;;;;;;20670184;28;20046;-80
2022/04/22 15:25:32;;;;;;;9.20;3.17;;;13.50;65.40;;;;;;20665542;28;20077;-82
2022/04/22 15:35:33;;;;;;;6.55;3.05;;;13.60;64.90;;;;;;20633395;28;20485;-79
2022/04/22 15:45:34;;;;;;;5.25;2.38;;;13.60;65.30;;;;;;20648831;28;20141;-80
2022/04/22 15:55:35;;;;;;;6.95;2.53;;;13.50;65.40;;;;;;20633298;28;20536;-81
2022/04/22 16:05:37;;;;;;;6.05;3.03;;;13.50;65.30;;;;;;20633330;28;20049;-80
2022/04/22 16:15:37;;;;;;;7.53;3.13;;;13.60;65.30;;;;;;20597086;28;20045;-77
2022/04/22 16:25:38;;;;;;;5.95;2.70;;;13.70;65.30;;;;;;20609087;28;20042;-80
2022/04/22 16:35:38;;;;;;;5.13;2.85;;;13.70;65.30;;;;;;20630126;28;20473;-79
2022/04/22 16:45:41;;;;;;;5.28;2.67;;;13.70;65.30;;;;;;20643278;28;20450;-78
2022/04/22 16:55:42;;;;;;;3.70;1.95;;;13.60;65.40;;;;;;20593847;28;20062;-78
2022/04/22 17:05:44;;;;;;;7.13;4.20;;;13.60;65.50;;;;;;20609752;28;20081;-79
2022/04/22 17:26:07;;;;;;;8.70;3.30;;;13.60;66.00;;;;;;20626896;28;20040;-76
2022/04/22 17:36:08;;;;;;;5.47;3.00;;;13.60;65.90;;;;;;20610529;28;20495;-78
2022/04/22 17:46:08;;;;;;;3.70;2.42;;;13.60;65.90;;;;;;20605737;28;20038;-71
2022/04/22 17:56:09;;;;;;;4.72;2.17;;;13.60;65.80;;;;;;20636714;28;20038;-72
2022/04/22 18:06:09;;;;;;;3.85;2.30;;;13.60;65.70;;;;;;20625668;28;20050;-74
2022/04/22 18:16:13;;;;;;;4.05;2.05;;;13.60;65.60;;;;;;20670270;28;20034;-75
2022/04/22 18:26:14;;;;;;;3.78;2.72;;;13.60;66.30;;;;;;20621690;28;20035;-76
2022/04/22 18:36:14;;;;;;;3.42;2.70;;;13.60;65.60;;;;;;20635132;28;20045;-76
2022/04/22 18:46:15;;;;;;;3.90;2.30;;;13.60;65.60;;;;;;20634674;28;20138;-78
2022/04/22 18:56:17;;;;;;;6.20;2.80;;;13.60;65.60;;;;;;20665283;28;20030;-70
2022/04/22 19:06:17;;;;;;;4.68;2.53;;;13.60;65.60;;;;;;20630858;28;20069;-70
2022/04/22 19:16:18;;;;;;;4.50;2.33;;;13.60;65.60;;;;;;20630558;28;20045;-71
2022/04/22 19:26:19;;;;;;;4.32;1.98;;;13.60;65.60;;;;;;20630293;28;20086;-70
2022/04/22 19:46:39;;;;;;;5.78;2.90;;;13.60;65.50;;;;;;20631259;28;20065;-72
2022/04/22 19:56:40;;;;;;;4.00;2.58;;;13.60;66.30;;;;;;20641770;28;20557;-70
2022/04/22 20:06:40;;;;;;;3.60;2.30;;;13.60;65.60;;;;;;20659187;28;20042;-70
2022/04/22 20:16:41;;;;;;;3.97;2.45;;;13.50;65.50;;;;;;20626105;28;20487;-70
2022/04/22 20:26:43;;;;;;;3.58;2.40;;;13.50;65.60;;;;;;20659640;28;20034;-70
2022/04/22 20:47:04;;;;;;;5.43;2.95;;;13.50;65.50;;;;;;20644859;28;20038;-70
2022/04/22 20:57:05;;;;;;;3.83;2.45;;;13.50;65.50;;;;;;20641317;28;20034;-70
2022/04/22 21:07:05;;;;;;;3.60;2.10;;;13.50;65.50;;;;;;20639249;28;20045;-71
2022/04/22 21:17:06;;;;;;;4.13;1.70;;;13.50;65.50;;;;;;20635050;28;20535;-70
2022/04/22 21:27:07;;;;;;;3.55;1.98;;;13.50;65.50;;;;;;20639857;28;20312;-70
2022/04/22 21:37:08;;;;;;;4.75;1.95;;;13.50;65.50;;;;;;20638758;28;20114;-72
2022/04/22 21:47:08;;;;;;;3.85;1.88;;;13.50;65.50;;;;;;20653955;28;20129;-71
2022/04/22 21:57:09;;;;;;;2.92;1.92;;;13.50;65.40;;;;;;20654425;28;20026;-70
2022/04/22 22:07:11;;;;;;;2.60;1.75;;;13.50;65.40;;;;;;20652802;28;20490;-71
2022/04/22 22:17:12;;;;;;;3.35;2.22;;;13.40;65.40;;;;;;20636179;28;20121;-70
2022/04/22 22:27:13;;;;;;;3.65;1.80;;;13.50;65.40;;;;;;20634893;28;20034;-70
2022/04/22 22:37:14;;;;;;;2.78;1.92;;;13.40;65.30;;;;;;20651549;28;20116;-71
2022/04/22 22:47:14;;;;;;;2.38;1.70;;;13.40;65.30;;;;;;20633400;28;20508;-70
2022/04/22 22:57:15;;;;;;;1.48;1.20;;;13.40;65.30;;;;;;20633681;28;20034;-71
2022/04/22 23:07:16;;;;;;;3.13;1.80;;;13.40;65.30;;;;;;20632625;28;20042;-70
2022/04/22 23:17:19;;;;;;;3.65;1.50;;;13.40;65.30;;;;;;20647766;28;20096;-71
2022/04/22 23:27:19;;;;;;;2.42;1.60;;;13.40;65.30;;;;;;20646832;28;20084;-70
2022/04/22 23:37:21;;;;;;;2.05;1.27;;;13.40;65.30;;;;;;20629966;28;20042;-71
2022/04/22 23:47:22;;;;;;;1.80;1.40;;;13.40;65.30;;;;;;20629275;28;20049;-71
2022/04/22 23:57:22;;;;;;;2.20;1.35;;;13.40;65.20;;;;;;20629268;28;20660;-70
